createdAt,value
2018-03-20T00:01:48.100Z,50.30
2018-03-20T00:04:14.537Z,49.60
2018-03-20T00:06:40.968Z,50.20
2018-03-20T00:09:07.460Z,50.20
2018-03-20T00:11:33.842Z,50.70
2018-03-20T00:14:00.291Z,50.90
2018-03-20T00:16:26.771Z,50.90
2018-03-20T00:18:53.145Z,50.10
2018-03-20T00:21:20.291Z,50.70
2018-03-20T00:23:46.657Z,50.70
2018-03-20T00:26:13.094Z,50.80
2018-03-20T00:28:39.492Z,50.70
2018-03-20T00:31:06.660Z,50.80
2018-03-20T00:33:33.069Z,50.80
2018-03-20T00:36:00.220Z,51.60
2018-03-20T00:38:27.374Z,50.80
2018-03-20T00:40:54.521Z,51.60
2018-03-20T00:43:20.879Z,51.50
2018-03-20T00:45:47.277Z,51.30
2018-03-20T00:48:13.761Z,51.40
2018-03-20T00:50:40.130Z,51.50
2018-03-20T00:53:06.559Z,52.20
2018-03-20T00:55:33.680Z,52.30
2018-03-20T00:58:00.164Z,52.30
2018-03-20T01:00:27.290Z,52.00
2018-03-20T01:02:53.703Z,52.00
2018-03-20T01:05:20.100Z,52.50
2018-03-20T01:07:46.514Z,52.00
2018-03-20T01:10:12.882Z,52.60
2018-03-20T01:12:39.397Z,52.80
2018-03-20T01:15:06.558Z,52.70
2018-03-20T01:17:33.019Z,52.70
2018-03-20T01:19:59.436Z,52.50
2018-03-20T01:22:25.847Z,51.60
2018-03-20T01:24:52.245Z,52.20
2018-03-20T01:27:18.664Z,51.90
2018-03-20T01:29:45.109Z,51.30
2018-03-20T01:32:11.490Z,52.10
2018-03-20T01:34:38.666Z,52.90
2018-03-20T01:37:05.825Z,52.80
2018-03-20T01:39:32.941Z,52.60
2018-03-20T01:41:59.343Z,52.60
2018-03-20T01:44:25.717Z,52.90
2018-03-20T01:46:52.133Z,53.30
2018-03-20T01:49:18.510Z,53.60
2018-03-20T01:51:44.932Z,53.70
2018-03-20T01:54:11.368Z,53.30
2018-03-20T01:56:38.550Z,53.10
2018-03-20T01:59:04.943Z,53.00
2018-03-20T02:01:31.376Z,53.30
2018-03-20T02:03:57.838Z,53.40
2018-03-20T02:06:24.257Z,53.90
2018-03-20T02:08:50.726Z,54.00
2018-03-20T02:11:17.117Z,53.80
2018-03-20T02:13:43.533Z,53.90
2018-03-20T02:16:10.637Z,53.90
2018-03-20T02:18:37.074Z,53.90
2018-03-20T02:21:03.471Z,53.70
2018-03-20T02:23:29.863Z,54.30
2018-03-20T02:25:57.070Z,54.70
2018-03-20T02:28:23.477Z,54.30
2018-03-20T02:30:49.864Z,54.30
2018-03-20T02:33:16.251Z,54.30
2018-03-20T02:35:42.654Z,54.60
2018-03-20T02:38:09.068Z,54.30
2018-03-20T02:40:36.238Z,55.00
2018-03-20T02:43:02.665Z,55.00
2018-03-20T02:45:29.962Z,57.10
2018-03-20T02:47:56.365Z,57.50
2018-03-20T02:50:22.810Z,58.30
2018-03-20T02:52:49.224Z,58.30
2018-03-20T02:55:16.517Z,58.60
2018-03-20T02:57:42.908Z,58.60
2018-03-20T03:00:09.291Z,58.20
2018-03-20T03:02:35.687Z,58.70
2018-03-20T03:05:02.138Z,58.70
2018-03-20T03:07:28.610Z,58.40
2018-03-20T03:09:55.018Z,58.20
2018-03-20T03:12:21.484Z,57.60
2018-03-20T03:14:47.862Z,57.90
2018-03-20T03:17:14.306Z,57.20
2018-03-20T03:19:40.716Z,56.70
2018-03-20T03:22:07.226Z,56.80
2018-03-20T03:24:33.721Z,57.00
2018-03-20T03:27:00.224Z,57.10
2018-03-20T03:29:27.388Z,56.60
2018-03-20T03:31:53.788Z,56.60
2018-03-20T03:34:20.195Z,57.10
2018-03-20T03:36:46.569Z,56.90
2018-03-20T03:39:12.948Z,56.60
2018-03-20T03:41:39.350Z,57.20
2018-03-20T03:44:05.734Z,57.10
2018-03-20T03:46:32.168Z,57.00
2018-03-20T03:48:58.717Z,56.20
2018-03-20T03:51:25.158Z,55.70
2018-03-20T03:53:51.582Z,56.30
2018-03-20T03:56:17.944Z,57.00
2018-03-20T03:58:45.066Z,56.40
2018-03-20T04:01:11.446Z,56.40
2018-03-20T04:03:44.850Z,55.50
2018-03-20T04:06:11.249Z,55.20
2018-03-20T04:08:38.436Z,57.60
2018-03-20T04:11:04.855Z,57.60
2018-03-20T04:13:31.249Z,57.20
2018-03-20T04:15:57.650Z,58.20
2018-03-20T04:18:24.013Z,56.80
2018-03-20T04:20:50.437Z,57.90
2018-03-20T04:23:16.816Z,57.80
2018-03-20T04:25:43.299Z,58.00
2018-03-20T04:28:10.436Z,57.30
2018-03-20T04:30:36.882Z,57.30
2018-03-20T04:33:03.253Z,57.60
2018-03-20T04:35:29.798Z,58.00
2018-03-20T04:37:56.224Z,57.70
2018-03-20T04:40:22.598Z,58.00
2018-03-20T04:42:48.964Z,57.60
2018-03-20T04:45:15.379Z,57.90
2018-03-20T04:47:41.787Z,58.60
2018-03-20T04:50:08.225Z,58.90
2018-03-20T04:52:34.672Z,58.70
2018-03-20T04:55:01.157Z,58.90
2018-03-20T04:57:27.613Z,58.70
2018-03-20T04:59:54.026Z,58.00
2018-03-20T05:02:21.500Z,58.80
2018-03-20T05:04:47.882Z,58.30
2018-03-20T05:07:14.285Z,58.00
2018-03-20T05:09:40.634Z,58.30
2018-03-20T05:12:07.057Z,57.90
2018-03-20T05:14:34.177Z,58.40
2018-03-20T05:17:00.575Z,58.40
2018-03-20T05:22:52.030Z,58.80
2018-03-20T05:25:18.424Z,59.10
2018-03-20T05:27:44.804Z,59.90
2018-03-20T05:30:11.270Z,59.80
2018-03-20T05:32:37.767Z,59.70
2018-03-20T05:35:04.163Z,58.80
2018-03-20T05:37:30.682Z,59.60
2018-03-20T05:39:57.149Z,60.00
2018-03-20T05:42:23.612Z,60.70
2018-03-20T05:44:50.749Z,61.90
2018-03-20T05:47:32.875Z,62.00
2018-03-20T05:50:06.008Z,61.80
2018-03-20T05:52:32.610Z,61.80
2018-03-20T05:54:59.109Z,61.90
2018-03-20T05:57:25.513Z,60.60
2018-03-20T05:59:51.959Z,61.10
2018-03-20T06:02:18.562Z,61.60
2018-03-20T06:04:45.152Z,61.10
2018-03-20T06:07:11.580Z,60.70
2018-03-20T06:09:38.775Z,60.00
2018-03-20T06:12:05.195Z,59.80
2018-03-20T06:14:32.357Z,60.30
2018-03-20T06:16:58.831Z,60.30
2018-03-20T06:19:25.256Z,58.60
2018-03-20T06:21:51.744Z,59.40
2018-03-20T06:24:18.870Z,60.60
2018-03-20T06:26:46.088Z,60.00
2018-03-20T06:29:12.531Z,60.00
2018-03-20T06:31:38.966Z,58.30
2018-03-20T06:34:05.379Z,59.40
2018-03-20T06:36:31.783Z,59.60
2018-03-20T06:38:58.210Z,59.10
2018-03-20T06:41:25.201Z,60.00
2018-03-20T06:43:51.706Z,59.10
2018-03-20T06:46:18.224Z,58.80
2018-03-20T06:48:44.572Z,58.20
2018-03-20T06:51:10.937Z,58.20
2018-03-20T06:53:37.384Z,58.00
2018-03-20T06:56:03.824Z,58.40
2018-03-20T06:58:30.305Z,58.90
2018-03-20T07:00:56.693Z,58.70
2018-03-20T07:03:23.154Z,58.40
2018-03-20T07:05:49.540Z,57.70
2018-03-20T07:08:16.756Z,58.90
2018-03-20T07:10:43.219Z,58.90
2018-03-20T07:13:10.377Z,57.70
2018-03-20T07:15:37.513Z,58.40
2018-03-20T07:18:03.895Z,58.40
2018-03-20T07:20:30.341Z,58.50
2018-03-20T07:22:56.733Z,58.40
2018-03-20T07:25:23.142Z,58.90
2018-03-20T07:27:50.304Z,57.80
2018-03-20T07:30:16.732Z,57.80
2018-03-20T07:32:44.775Z,57.60
2018-03-20T07:35:11.273Z,57.60
2018-03-20T07:37:38.468Z,56.80
2018-03-20T07:40:04.839Z,56.70
2018-03-20T07:42:31.268Z,56.40
2018-03-20T07:44:57.654Z,55.80
2018-03-20T07:47:24.038Z,55.90
2018-03-20T07:49:50.445Z,56.10
2018-03-20T07:52:16.841Z,56.30
2018-03-20T07:54:43.954Z,54.60
2018-03-20T07:57:10.356Z,54.50
2018-03-20T07:59:36.721Z,54.30
2018-03-20T08:02:03.157Z,55.00
2018-03-20T08:04:29.546Z,54.90
2018-03-20T08:06:56.047Z,54.30
2018-03-20T08:09:22.443Z,54.50
2018-03-20T08:11:48.794Z,54.70
2018-03-20T08:14:15.987Z,52.60
2018-03-20T08:16:43.849Z,53.10
2018-03-20T08:19:10.301Z,53.10
2018-03-20T08:21:36.994Z,54.00
2018-03-20T08:24:03.454Z,53.30
2018-03-20T08:26:30.589Z,53.60
2018-03-20T08:28:57.833Z,53.10
2018-03-20T08:31:24.231Z,53.10
2018-03-20T08:33:50.618Z,53.50
2018-03-20T08:36:17.797Z,52.10
2018-03-20T08:38:44.245Z,52.10
2018-03-20T08:41:10.632Z,52.60
2018-03-20T08:43:36.992Z,51.40
2018-03-20T08:46:03.396Z,51.30
2018-03-20T08:48:29.818Z,52.40
2018-03-20T08:50:56.223Z,51.40
2018-03-20T08:53:22.628Z,51.50
2018-03-20T08:55:49.009Z,50.00
2018-03-20T08:58:16.153Z,50.10
2018-03-20T09:00:43.277Z,50.50
2018-03-20T09:03:10.482Z,49.90
2018-03-20T09:05:36.877Z,49.80
2018-03-20T09:08:05.058Z,48.80
2018-03-20T09:10:32.194Z,48.90
2018-03-20T09:12:59.554Z,48.60
2018-03-20T09:15:26.678Z,48.70
2018-03-20T09:17:53.138Z,48.70
2018-03-20T09:20:19.518Z,47.90
2018-03-20T09:22:45.941Z,47.90
2018-03-20T09:25:12.328Z,48.00
2018-03-20T09:27:39.486Z,48.30
2018-03-20T09:30:05.896Z,48.30
2018-03-20T09:32:33.062Z,47.80
2018-03-20T09:34:59.502Z,47.70
2018-03-20T09:37:25.889Z,47.20
2018-03-20T09:39:52.292Z,47.30
2018-03-20T09:42:18.654Z,46.70
2018-03-20T09:44:45.086Z,47.20
2018-03-20T09:47:12.425Z,47.20
2018-03-20T09:49:38.781Z,47.20
2018-03-20T09:52:06.729Z,45.80
2018-03-20T09:54:33.097Z,45.70
2018-03-20T09:57:00.272Z,46.00
2018-03-20T09:59:26.655Z,46.10
2018-03-20T10:01:53.141Z,46.00
2018-03-20T10:04:19.528Z,44.50
2018-03-20T10:06:46.677Z,44.60
2018-03-20T10:09:13.863Z,44.60
2018-03-20T10:11:40.295Z,44.60
2018-03-20T10:14:06.800Z,44.00
2018-03-20T10:16:33.212Z,43.00
2018-03-20T10:18:59.671Z,41.90
2018-03-20T10:21:26.031Z,43.50
2018-03-20T10:23:52.482Z,42.50
2018-03-20T10:26:19.058Z,43.40
2018-03-20T10:28:45.462Z,42.80
2018-03-20T10:31:11.990Z,41.60
2018-03-20T10:33:38.430Z,43.20
2018-03-20T10:36:04.863Z,42.70
2018-03-20T10:38:38.081Z,42.00
2018-03-20T10:41:11.453Z,42.30
2018-03-20T10:43:37.997Z,40.30
2018-03-20T10:46:05.260Z,41.40
2018-03-20T10:48:31.874Z,41.40
2018-03-20T10:50:59.030Z,39.30
2018-03-20T10:53:26.163Z,39.30
2018-03-20T10:55:53.326Z,38.60
2018-03-20T10:58:20.472Z,38.00
2018-03-20T11:00:47.641Z,38.40
2018-03-20T11:03:14.909Z,38.00
2018-03-20T11:05:41.322Z,38.00
2018-03-20T11:08:08.488Z,37.70
2018-03-20T11:10:34.883Z,37.70
2018-03-20T11:13:02.029Z,36.50
2018-03-20T11:17:54.910Z,38.20
2018-03-20T11:20:21.302Z,38.60
2018-03-20T11:22:47.729Z,34.90
2018-03-20T11:25:14.162Z,36.80
2018-03-20T11:27:40.594Z,33.30
2018-03-20T11:30:07.074Z,34.10
2018-03-20T11:32:33.558Z,33.90
2018-03-20T11:34:59.985Z,33.90
2018-03-20T11:37:26.476Z,33.80
2018-03-20T11:39:52.846Z,34.40
2018-03-20T11:42:19.255Z,34.30
2018-03-20T11:44:45.740Z,32.90
2018-03-20T11:47:12.185Z,34.60
2018-03-20T11:49:38.569Z,34.00
2018-03-20T11:52:04.989Z,36.30
2018-03-20T11:54:32.189Z,34.60
2018-03-20T11:56:58.677Z,34.50
2018-03-20T11:59:26.751Z,34.20
2018-03-20T12:01:53.220Z,35.60
2018-03-20T12:04:19.670Z,34.30
2018-03-20T12:06:46.761Z,32.30
2018-03-20T12:09:31.740Z,32.30
2018-03-20T12:11:58.134Z,34.40
2018-03-20T12:14:24.636Z,35.10
2018-03-20T12:16:51.096Z,34.10
2018-03-20T12:19:17.570Z,35.40
2018-03-20T12:21:43.983Z,34.40
2018-03-20T12:24:10.425Z,34.70
2018-03-20T12:26:36.793Z,35.30
2018-03-20T12:29:03.934Z,36.30
2018-03-20T12:31:30.289Z,36.40
2018-03-20T12:33:56.658Z,35.20
2018-03-20T12:36:30.126Z,35.60
2018-03-20T12:38:56.550Z,33.80
2018-03-20T12:41:22.969Z,30.70
2018-03-20T12:43:49.387Z,31.80
2018-03-20T12:48:50.798Z,31.90
2018-03-20T12:51:17.267Z,33.90
2018-03-20T12:53:43.811Z,34.70
2018-03-20T12:56:10.328Z,36.90
2018-03-20T12:58:36.708Z,37.90
2018-03-20T13:01:03.121Z,39.50
2018-03-20T13:03:29.520Z,42.00
2018-03-20T13:05:55.970Z,43.70
2018-03-20T13:08:22.330Z,47.20
2018-03-20T13:10:48.718Z,56.40
2018-03-20T13:13:15.116Z,65.00
2018-03-20T13:15:41.520Z,67.40
2018-03-20T13:18:08.015Z,67.00
2018-03-20T13:20:34.464Z,67.20
2018-03-20T13:23:01.765Z,67.40
2018-03-20T13:25:28.131Z,70.00
2018-03-20T13:27:54.551Z,69.30
2018-03-20T13:30:20.957Z,69.60
2018-03-20T13:32:47.398Z,69.80
2018-03-20T13:35:13.853Z,69.80
2018-03-20T13:37:40.286Z,71.40
2018-03-20T13:40:06.744Z,68.20
2018-03-20T13:42:33.898Z,65.10
2018-03-20T13:45:00.402Z,64.90
2018-03-20T13:47:26.853Z,65.40
2018-03-20T13:49:53.995Z,69.50
2018-03-20T13:52:20.474Z,69.50
2018-03-20T13:54:46.956Z,66.30
2018-03-20T13:57:13.346Z,68.20
2018-03-20T13:59:39.772Z,62.90
2018-03-20T14:02:06.152Z,62.70
2018-03-20T14:04:32.550Z,63.90
2018-03-20T14:06:59.049Z,61.50
2018-03-20T14:09:25.533Z,63.60
2018-03-20T14:11:52.003Z,63.80
2018-03-20T14:14:18.464Z,65.00
2018-03-20T14:16:44.870Z,65.10
2018-03-20T14:19:11.265Z,65.20
2018-03-20T14:21:37.818Z,64.30
2018-03-20T14:24:04.267Z,61.90
2018-03-20T14:26:30.863Z,64.00
2018-03-20T14:28:57.366Z,63.40
2018-03-20T14:31:23.766Z,64.20
2018-03-20T14:33:50.213Z,62.40
2018-03-20T14:36:16.789Z,63.00
2018-03-20T14:38:43.243Z,65.20
2018-03-20T14:41:10.454Z,62.10
2018-03-20T14:43:36.857Z,62.10
2018-03-20T14:46:03.283Z,60.30
2018-03-20T14:48:29.722Z,61.80
2018-03-20T14:50:56.045Z,62.80
2018-03-20T14:53:22.437Z,62.90
2018-03-20T14:55:49.606Z,62.40
2018-03-20T14:58:16.043Z,62.40
2018-03-20T15:00:43.205Z,65.50
2018-03-20T15:03:09.702Z,65.40
2018-03-20T15:05:36.126Z,65.70
2018-03-20T15:08:02.735Z,66.90
2018-03-20T15:10:29.127Z,66.70
2018-03-20T15:12:55.560Z,67.40
2018-03-20T15:15:22.830Z,67.30
2018-03-20T15:17:49.275Z,67.10
2018-03-20T15:20:15.811Z,69.00
2018-03-20T15:22:42.308Z,70.00
2018-03-20T15:25:08.695Z,70.30
2018-03-20T15:27:35.287Z,70.40
2018-03-20T15:30:01.720Z,69.60
2018-03-20T15:32:28.150Z,70.10
2018-03-20T15:34:54.580Z,70.30
2018-03-20T15:37:21.021Z,70.30
2018-03-20T15:39:47.549Z,70.90
2018-03-20T15:42:14.026Z,70.80
2018-03-20T15:44:40.421Z,69.20
2018-03-20T15:47:06.823Z,69.70
2018-03-20T15:49:34.031Z,70.70
2018-03-20T15:52:00.531Z,70.80
2018-03-20T15:54:26.941Z,74.40
2018-03-20T15:56:54.162Z,74.60
2018-03-20T15:59:20.608Z,74.60
2018-03-20T16:01:47.822Z,74.80
2018-03-20T16:04:14.259Z,74.60
2018-03-20T16:06:40.712Z,76.30
2018-03-20T16:09:07.400Z,77.10
2018-03-20T16:11:34.910Z,74.70
2018-03-20T16:14:02.088Z,74.60
2018-03-20T16:16:28.493Z,74.80
2018-03-20T16:18:55.625Z,76.70
2018-03-20T16:21:22.124Z,76.60
2018-03-20T16:23:48.503Z,77.10
2018-03-20T16:26:15.704Z,75.50
2018-03-20T16:28:42.164Z,75.50
2018-03-20T16:31:08.651Z,75.80
2018-03-20T16:33:35.171Z,75.60
2018-03-20T16:36:01.715Z,76.50
2018-03-20T16:38:28.138Z,77.60
2018-03-20T16:40:54.552Z,77.80
2018-03-20T16:43:21.042Z,79.20
2018-03-20T16:45:47.460Z,80.70
2018-03-20T16:48:13.913Z,81.90
2018-03-20T16:50:40.414Z,81.60
2018-03-20T16:53:06.841Z,82.20
2018-03-20T16:55:33.424Z,81.80
2018-03-20T16:58:00.062Z,82.30
2018-03-20T17:00:26.494Z,83.20
2018-03-20T17:02:52.851Z,82.60
2018-03-20T17:05:20.044Z,82.60
2018-03-20T17:07:46.508Z,82.70
2018-03-20T17:10:13.117Z,83.80
2018-03-20T17:12:39.587Z,83.30
2018-03-20T17:15:06.778Z,83.30
2018-03-20T17:17:33.236Z,83.30
2018-03-20T17:20:00.645Z,85.20
2018-03-20T17:22:27.082Z,83.50
2018-03-20T17:24:53.602Z,83.40
2018-03-20T17:27:20.058Z,83.40
2018-03-20T17:29:46.529Z,83.50
2018-03-20T17:32:12.961Z,83.40
2018-03-20T17:34:39.409Z,83.50
2018-03-20T17:37:05.800Z,82.80
2018-03-20T17:39:32.221Z,81.00
2018-03-20T17:41:58.685Z,81.20
2018-03-20T17:44:25.138Z,82.10
2018-03-20T17:46:51.636Z,83.40
2018-03-20T17:49:18.074Z,83.90
2018-03-20T17:51:44.462Z,83.60
2018-03-20T17:54:10.925Z,83.60
2018-03-20T17:56:37.499Z,81.90
2018-03-20T17:59:04.038Z,82.80
2018-03-20T18:01:30.514Z,84.20
2018-03-20T18:03:56.978Z,82.40
2018-03-20T18:06:23.452Z,81.80
2018-03-20T18:08:50.570Z,81.40
2018-03-20T18:11:17.867Z,81.40
2018-03-20T18:13:44.288Z,82.50
2018-03-20T18:16:11.461Z,82.40
2018-03-20T18:18:37.858Z,82.50
2018-03-20T18:21:04.261Z,83.50
2018-03-20T18:23:30.663Z,84.00
2018-03-20T18:25:57.075Z,83.60
2018-03-20T18:28:23.544Z,84.20
2018-03-20T18:30:50.707Z,85.90
2018-03-20T18:33:17.171Z,86.00
2018-03-20T18:35:44.352Z,86.10
2018-03-20T18:38:10.862Z,86.10
2018-03-20T18:40:38.060Z,86.60
2018-03-20T18:43:04.549Z,86.60
2018-03-20T18:45:30.972Z,86.60
2018-03-20T18:47:58.225Z,86.70
2018-03-20T18:50:25.416Z,87.90
2018-03-20T18:52:51.830Z,87.80
2018-03-20T18:55:19.082Z,89.60
2018-03-20T18:57:45.578Z,89.20
2018-03-20T19:00:12.088Z,90.30
2018-03-20T19:02:39.292Z,90.30
2018-03-20T19:05:05.763Z,90.30
2018-03-20T19:07:32.164Z,89.60
2018-03-20T19:09:58.643Z,89.80
2018-03-20T19:12:25.073Z,90.30
2018-03-20T19:14:51.718Z,90.10
2018-03-20T19:17:18.177Z,90.50
2018-03-20T19:19:44.662Z,91.00
2018-03-20T19:22:11.132Z,91.20
2018-03-20T19:24:37.606Z,91.20
2018-03-20T19:27:04.119Z,91.30
2018-03-20T19:29:30.554Z,91.00
2018-03-20T19:31:57.058Z,91.00
2018-03-20T19:34:23.404Z,91.00
2018-03-20T19:36:49.886Z,91.50
2018-03-20T19:39:16.367Z,91.90
2018-03-20T19:41:42.777Z,91.20
2018-03-20T19:44:09.231Z,91.70
2018-03-20T19:46:35.685Z,91.00
2018-03-20T19:49:02.969Z,91.10
2018-03-20T19:51:29.509Z,91.10
2018-03-20T19:53:56.031Z,91.00
2018-03-20T19:56:22.453Z,91.10
2018-03-20T19:58:48.939Z,91.00
2018-03-20T20:01:15.426Z,90.80
2018-03-20T20:03:41.946Z,90.70
2018-03-20T20:06:08.673Z,90.40
2018-03-20T20:08:42.265Z,90.30
2018-03-20T20:11:08.740Z,90.50
2018-03-20T20:13:35.192Z,90.00
2018-03-20T20:16:02.416Z,89.40
2018-03-20T20:18:29.026Z,89.60
2018-03-20T20:20:55.516Z,89.60
2018-03-20T20:23:22.701Z,90.00
2018-03-20T20:25:49.184Z,90.00
2018-03-20T20:28:16.400Z,89.60
2018-03-20T20:30:42.949Z,89.60
2018-03-20T20:33:09.404Z,88.30
2018-03-20T20:35:35.863Z,88.30
2018-03-20T20:38:02.354Z,89.70
2018-03-20T20:40:28.863Z,90.30
2018-03-20T20:42:56.124Z,90.20
2018-03-20T20:45:22.550Z,90.20
2018-03-20T20:47:49.047Z,90.20
2018-03-20T20:50:15.680Z,89.00
2018-03-20T20:52:42.226Z,87.90
2018-03-20T20:55:08.737Z,88.40
2018-03-20T20:57:35.918Z,86.30
2018-03-20T21:00:02.486Z,86.30
2018-03-20T21:02:29.082Z,85.60
2018-03-20T21:04:55.558Z,85.00
2018-03-20T21:07:22.009Z,85.40
2018-03-20T21:09:49.253Z,84.50
2018-03-20T21:12:15.721Z,84.50
2018-03-20T21:14:42.214Z,84.90
2018-03-20T21:17:08.647Z,83.90
2018-03-20T21:19:35.097Z,84.00
2018-03-20T21:22:01.539Z,83.70
2018-03-20T21:24:28.007Z,83.80
2018-03-20T21:26:54.510Z,83.10
2018-03-20T21:29:21.050Z,83.20
2018-03-20T21:31:47.606Z,83.80
2018-03-20T21:34:14.053Z,82.10
2018-03-20T21:36:40.515Z,82.00
2018-03-20T21:39:06.929Z,82.40
2018-03-20T21:41:33.586Z,82.00
2018-03-20T21:44:00.767Z,79.70
2018-03-20T21:46:27.231Z,80.20
2018-03-20T21:48:53.786Z,79.80
2018-03-20T21:51:20.313Z,79.80
2018-03-20T21:53:47.475Z,79.80
2018-03-20T21:56:14.030Z,79.80
2018-03-20T21:58:40.539Z,79.40
2018-03-20T22:01:06.963Z,79.90
2018-03-20T22:03:33.404Z,77.90
2018-03-20T22:05:59.919Z,79.20
2018-03-20T22:08:26.404Z,78.80
2018-03-20T22:10:52.798Z,77.50
2018-03-20T22:13:19.241Z,77.00
2018-03-20T22:15:45.657Z,77.60
2018-03-20T22:18:12.066Z,77.30
2018-03-20T22:20:38.518Z,78.40
2018-03-20T22:23:04.926Z,78.30
2018-03-20T22:25:31.399Z,78.00
2018-03-20T22:27:57.875Z,79.00
2018-03-20T22:30:24.394Z,79.60
2018-03-20T22:32:50.805Z,79.60
2018-03-20T22:35:17.243Z,79.60
2018-03-20T22:37:44.388Z,79.60
2018-03-20T22:40:11.697Z,79.50
2018-03-20T22:42:38.232Z,79.50
2018-03-20T22:45:04.768Z,78.00
2018-03-20T22:47:31.138Z,76.70
2018-03-20T22:49:58.329Z,78.70
2018-03-20T22:52:24.745Z,78.70
2018-03-20T22:54:51.179Z,77.70
2018-03-20T22:57:17.673Z,78.20
2018-03-20T22:59:44.046Z,77.60
2018-03-20T23:02:10.476Z,76.30
2018-03-20T23:04:36.937Z,75.40
2018-03-20T23:07:03.397Z,75.30
2018-03-20T23:09:30.521Z,75.00
2018-03-20T23:11:56.944Z,75.00
2018-03-20T23:14:23.365Z,75.30
2018-03-20T23:16:49.763Z,75.70
2018-03-20T23:19:16.252Z,76.30
2018-03-20T23:21:43.438Z,76.60
2018-03-20T23:24:10.568Z,76.80
2018-03-20T23:26:36.968Z,76.70
2018-03-20T23:29:03.384Z,75.30
2018-03-20T23:31:29.809Z,75.20
2018-03-20T23:33:56.218Z,75.20
2018-03-20T23:36:22.665Z,74.70
2018-03-20T23:38:49.046Z,74.60
2018-03-20T23:41:15.417Z,75.20
2018-03-20T23:43:41.868Z,73.80
2018-03-20T23:46:08.398Z,74.70
2018-03-20T23:48:34.809Z,74.10
2018-03-20T23:51:01.217Z,74.40
2018-03-20T23:53:27.605Z,74.10
2018-03-20T23:55:53.997Z,73.50
2018-03-20T23:58:20.376Z,73.60
